Time;durP1;ratioP1;P1;durP2;ratioP2;P2;SDS_P1;SDS_P2;PMS_P1;PMS_P2;Temp;Humidity;BMP_temperature;BMP_pressure;BME280_temperature;BME280_humidity;BME280_pressure;Samples;Min_cycle;Max_cycle;Signal;HPM_P1;HPM_P2
2022/09/15 00:00:03;;;;;;;1.65;1.40;;;;;;;;;;5092970;28;20052;-73
2022/09/15 00:02:30;;;;;;;2.00;1.33;;;;;;;;;;5092963;28;20051;-73
2022/09/15 00:04:57;;;;;;;2.10;1.50;;;;;;;;;;5092992;28;20098;-73
2022/09/15 00:07:23;;;;;;;1.70;1.40;;;;;;;;;;5092806;28;20411;-73
2022/09/15 00:09:49;;;;;;;1.88;1.38;;;;;;;;;;5092846;28;20503;-73
2022/09/15 00:12:16;;;;;;;1.42;1.20;;;;;;;;;;5092824;28;20044;-73
2022/09/15 00:14:42;;;;;;;1.90;1.17;;;;;;;;;;5092890;28;20055;-73
2022/09/15 00:17:09;;;;;;;2.83;1.08;;;;;;;;;;5092984;28;20044;-73
2022/09/15 00:19:36;;;;;;;2.67;1.20;;;;;;;;;;5092539;28;20106;-73
2022/09/15 00:22:02;;;;;;;2.65;1.23;;;;;;;;;;5092634;28;20067;-73
2022/09/15 00:24:28;;;;;;;2.30;1.15;;;;;;;;;;5092812;28;20040;-73
2022/09/15 00:26:55;;;;;;;2.10;1.10;;;;;;;;;;5092431;28;20058;-73
2022/09/15 00:29:22;;;;;;;1.70;1.25;;;;;;;;;;5092661;28;20409;-73
2022/09/15 00:31:48;;;;;;;1.17;1.08;;;;;;;;;;5092385;28;20407;-72
2022/09/15 00:34:15;;;;;;;3.70;1.20;;;;;;;;;;5092453;28;20048;-73
2022/09/15 00:36:41;;;;;;;3.33;1.60;;;;;;;;;;5092263;28;20052;-73
2022/09/15 00:39:07;;;;;;;1.55;1.20;;;;;;;;;;5092523;28;20287;-73
2022/09/15 00:41:34;;;;;;;1.95;1.27;;;;;;;;;;5092213;28;20054;-72
2022/09/15 00:44:24;;;;;;;1.40;1.30;;;;;;;;;;5092247;28;20040;-73
2022/09/15 00:46:51;;;;;;;2.45;1.10;;;;;;;;;;5081626;28;20509;-72
2022/09/15 00:49:38;;;;;;;1.60;1.05;;;;;;;;;;5092372;28;20415;-72
2022/09/15 00:52:14;;;;;;;1.52;1.20;;;;;;;;;;5092058;28;20052;-73
2022/09/15 00:54:40;;;;;;;1.13;1.00;;;;;;;;;;5092077;28;20494;-72
2022/09/15 00:57:13;;;;;;;2.97;1.42;;;;;;;;;;5091952;28;20056;-71
2022/09/15 00:59:40;;;;;;;1.70;1.10;;;;;;;;;;5091937;28;20062;-71
2022/09/15 01:02:07;;;;;;;2.53;1.20;;;;;;;;;;5092109;28;20052;-71
2022/09/15 01:04:33;;;;;;;2.03;1.10;;;;;;;;;;5092250;28;20040;-71
2022/09/15 01:07:02;;;;;;;1.75;1.02;;;;;;;;;;5092085;28;20047;-71
2022/09/15 01:09:35;;;;;;;1.23;0.80;;;;;;;;;;5092065;28;20044;-71
2022/09/15 01:12:02;;;;;;;2.22;1.20;;;;;;;;;;5091573;28;20059;-70
2022/09/15 01:14:28;;;;;;;1.20;1.03;;;;;;;;;;5090548;28;20048;-71
2022/09/15 01:17:02;;;;;;;2.38;1.35;;;;;;;;;;5092003;28;20048;-70
2022/09/15 01:19:47;;;;;;;1.48;1.00;;;;;;;;;;5091738;28;20419;-71
2022/09/15 01:22:43;;;;;;;3.00;1.00;;;;;;;;;;5091673;28;20054;-71
2022/09/15 01:25:21;;;;;;;3.55;1.00;;;;;;;;;;5086843;28;20048;-71
2022/09/15 01:27:53;;;;;;;2.85;1.25;;;;;;;;;;5092918;28;20058;-71
2022/09/15 01:30:20;;;;;;;1.25;0.77;;;;;;;;;;5091691;28;20063;-71
2022/09/15 01:33:05;;;;;;;1.70;1.08;;;;;;;;;;5091566;28;20070;-71
2022/09/15 01:35:39;;;;;;;3.83;1.08;;;;;;;;;;5091688;28;20127;-71
2022/09/15 01:38:24;;;;;;;1.88;1.30;;;;;;;;;;5091606;28;20048;-71
2022/09/15 01:40:54;;;;;;;2.15;1.38;;;;;;;;;;5091444;28;20048;-71
2022/09/15 01:43:22;;;;;;;2.33;1.70;;;;;;;;;;5091747;28;20052;-71
2022/09/15 01:45:49;;;;;;;3.13;1.30;;;;;;;;;;5091469;28;20056;-71
2022/09/15 01:48:18;;;;;;;2.08;1.10;;;;;;;;;;5091657;28;20097;-70
2022/09/15 01:50:47;;;;;;;1.50;1.20;;;;;;;;;;5091449;28;20048;-70
2022/09/15 01:53:14;;;;;;;2.30;1.08;;;;;;;;;;5091391;28;20062;-71
2022/09/15 01:56:01;;;;;;;2.45;1.15;;;;;;;;;;5091777;28;20048;-70
2022/09/15 01:58:27;;;;;;;2.33;1.30;;;;;;;;;;5091366;28;20044;-70
2022/09/15 02:01:11;;;;;;;1.77;1.17;;;;;;;;;;5091363;28;20051;-70
2022/09/15 02:03:43;;;;;;;1.80;1.10;;;;;;;;;;5091653;28;20072;-70
2022/09/15 02:06:15;;;;;;;2.20;1.10;;;;;;;;;;5091195;28;20048;-70
2022/09/15 02:08:48;;;;;;;1.85;1.02;;;;;;;;;;5091253;28;20495;-70
2022/09/15 02:11:17;;;;;;;1.65;1.10;;;;;;;;;;5091546;28;20063;-71
2022/09/15 02:13:47;;;;;;;1.58;1.15;;;;;;;;;;5091213;28;20518;-71
2022/09/15 02:16:20;;;;;;;1.35;0.95;;;;;;;;;;5091426;28;20052;-71
2022/09/15 02:19:10;;;;;;;1.63;1.00;;;;;;;;;;5091230;28;20472;-70
2022/09/15 02:21:45;;;;;;;1.35;1.10;;;;;;;;;;5091732;28;20471;-71
2022/09/15 02:24:14;;;;;;;2.08;1.05;;;;;;;;;;5095193;28;20062;-71
2022/09/15 02:26:42;;;;;;;3.42;0.98;;;;;;;;;;5094875;28;20094;-71
2022/09/15 02:29:11;;;;;;;1.90;1.00;;;;;;;;;;5095054;28;20044;-71
2022/09/15 02:31:38;;;;;;;2.00;0.90;;;;;;;;;;5095139;28;20052;-71
2022/09/15 02:34:09;;;;;;;2.58;1.33;;;;;;;;;;5094781;28;20503;-71
2022/09/15 02:36:36;;;;;;;1.50;1.08;;;;;;;;;;5094793;28;20051;-71
2022/09/15 02:39:06;;;;;;;2.03;0.88;;;;;;;;;;5094769;28;20043;-71
2022/09/15 02:41:33;;;;;;;1.75;0.95;;;;;;;;;;5094736;28;20046;-71
2022/09/15 02:43:59;;;;;;;2.35;1.02;;;;;;;;;;5094729;28;20063;-71
2022/09/15 02:46:27;;;;;;;4.43;1.00;;;;;;;;;;5094811;28;20048;-71
2022/09/15 02:48:53;;;;;;;2.22;1.10;;;;;;;;;;5094462;28;20048;-71
2022/09/15 02:51:19;;;;;;;1.98;1.08;;;;;;;;;;5094730;28;20421;-71
2022/09/15 02:53:46;;;;;;;1.55;1.13;;;;;;;;;;5094245;28;20052;-71
2022/09/15 02:56:15;;;;;;;2.60;1.00;;;;;;;;;;5094286;28;20051;-71
2022/09/15 02:58:42;;;;;;;3.55;1.05;;;;;;;;;;5094207;28;20502;-71
2022/09/15 03:01:13;;;;;;;1.13;0.85;;;;;;;;;;5094494;28;20072;-71
2022/09/15 03:06:36;;;;;;;1.00;0.88;;;;;;;;;;5094441;28;20048;-71
2022/09/15 03:09:05;;;;;;;1.40;1.02;;;;;;;;;;5094263;28;20048;-71
2022/09/15 03:11:32;;;;;;;1.63;1.00;;;;;;;;;;5094319;28;20050;-71
2022/09/15 03:14:00;;;;;;;2.33;1.10;;;;;;;;;;5094125;28;20060;-71
2022/09/15 03:16:27;;;;;;;1.85;1.10;;;;;;;;;;5094101;28;20290;-71
2022/09/15 03:18:54;;;;;;;;;;;;;;;;;;5094166;28;20465;-71
2022/09/15 03:21:21;;;;;;;1.35;0.82;;;;;;;;;;5093719;28;20379;-71
2022/09/15 03:23:47;;;;;;;1.13;1.00;;;;;;;;;;5094009;28;20052;-71
2022/09/15 03:26:13;;;;;;;2.03;1.10;;;;;;;;;;5093808;28;20044;-71
2022/09/15 03:28:40;;;;;;;1.60;0.90;;;;;;;;;;5093608;28;20055;-71
2022/09/15 03:31:07;;;;;;;2.10;1.20;;;;;;;;;;5093763;28;20048;-71
2022/09/15 03:33:33;;;;;;;2.97;1.10;;;;;;;;;;5092965;28;20061;-71
2022/09/15 03:36:00;;;;;;;1.55;0.90;;;;;;;;;;5093821;28;20048;-71
2022/09/15 03:38:26;;;;;;;1.23;1.13;;;;;;;;;;5093745;28;20056;-71
2022/09/15 03:40:57;;;;;;;1.95;1.35;;;;;;;;;;5093624;28;20058;-71
2022/09/15 03:43:23;;;;;;;2.78;1.30;;;;;;;;;;5093789;28;20040;-71
2022/09/15 03:45:49;;;;;;;1.20;1.20;;;;;;;;;;5093405;28;20051;-71
2022/09/15 03:48:16;;;;;;;2.13;1.40;;;;;;;;;;5093524;28;20055;-71
2022/09/15 03:50:42;;;;;;;2.40;1.10;;;;;;;;;;5086334;28;20044;-70
2022/09/15 03:53:09;;;;;;;2.22;1.10;;;;;;;;;;5093110;28;20062;-70
2022/09/15 03:55:35;;;;;;;1.23;0.82;;;;;;;;;;5093138;28;20146;-71
2022/09/15 03:58:01;;;;;;;1.70;0.90;;;;;;;;;;5093391;28;20044;-70
2022/09/15 04:00:28;;;;;;;2.33;1.08;;;;;;;;;;5093382;28;20052;-71
2022/09/15 04:02:54;;;;;;;3.15;1.05;;;;;;;;;;5093178;28;20113;-71
2022/09/15 04:05:21;;;;;;;2.22;1.13;;;;;;;;;;5092947;28;20487;-70
2022/09/15 04:07:49;;;;;;;2.17;1.10;;;;;;;;;;5093373;28;20067;-70
2022/09/15 04:10:15;;;;;;;2.17;0.98;;;;;;;;;;5093137;28;20480;-70
2022/09/15 04:12:43;;;;;;;2.17;1.02;;;;;;;;;;5092848;28;20510;-70
2022/09/15 04:15:09;;;;;;;1.77;1.00;;;;;;;;;;5092980;28;20182;-70
2022/09/15 04:17:36;;;;;;;5.32;1.20;;;;;;;;;;5092737;28;20075;-71
2022/09/15 04:20:02;;;;;;;2.63;1.10;;;;;;;;;;5092584;28;20056;-71
2022/09/15 04:22:29;;;;;;;2.95;1.00;;;;;;;;;;5092571;28;20495;-71
2022/09/15 04:24:56;;;;;;;1.10;0.90;;;;;;;;;;5092569;28;20047;-71
2022/09/15 04:27:22;;;;;;;1.38;0.95;;;;;;;;;;5092670;28;20360;-70
2022/09/15 04:29:51;;;;;;;2.45;1.20;;;;;;;;;;5092787;28;20058;-71
2022/09/15 04:32:18;;;;;;;1.88;0.93;;;;;;;;;;5092629;28;20044;-71
2022/09/15 04:34:44;;;;;;;2.30;1.02;;;;;;;;;;5092492;28;20044;-71
2022/09/15 04:37:11;;;;;;;2.15;1.30;;;;;;;;;;5092460;28;20048;-71
2022/09/15 04:39:38;;;;;;;3.65;1.00;;;;;;;;;;5092600;28;20075;-70
2022/09/15 04:42:06;;;;;;;1.35;1.00;;;;;;;;;;5092163;28;20044;-70
2022/09/15 04:44:33;;;;;;;1.42;0.80;;;;;;;;;;5092345;28;20040;-71
2022/09/15 04:46:59;;;;;;;3.28;1.00;;;;;;;;;;5091753;28;20044;-71
2022/09/15 04:49:27;;;;;;;2.00;0.90;;;;;;;;;;5092187;28;20051;-71
2022/09/15 04:51:54;;;;;;;0.70;0.70;;;;;;;;;;5092273;28;20047;-71
2022/09/15 04:54:20;;;;;;;1.47;0.80;;;;;;;;;;5092405;28;20047;-71
2022/09/15 04:56:47;;;;;;;3.50;1.10;;;;;;;;;;5092318;28;20051;-71
2022/09/15 04:59:14;;;;;;;1.20;1.00;;;;;;;;;;5092160;28;20415;-71
2022/09/15 05:01:41;;;;;;;2.28;0.93;;;;;;;;;;5092186;28;20059;-72
2022/09/15 05:04:08;;;;;;;3.10;1.00;;;;;;;;;;5091911;28;20052;-73
2022/09/15 05:06:35;;;;;;;0.95;0.90;;;;;;;;;;5092081;28;20036;-72
2022/09/15 05:09:02;;;;;;;3.40;1.03;;;;;;;;;;5091891;28;20503;-72
2022/09/15 05:11:35;;;;;;;1.73;0.95;;;;;;;;;;5091783;28;20047;-72
2022/09/15 05:14:02;;;;;;;2.80;1.10;;;;;;;;;;5091835;28;20053;-72
2022/09/15 05:16:28;;;;;;;2.03;0.87;;;;;;;;;;5091908;28;20064;-73
2022/09/15 05:18:56;;;;;;;1.33;1.03;;;;;;;;;;5091798;28;20105;-73
2022/09/15 05:21:23;;;;;;;2.25;1.25;;;;;;;;;;5091899;28;20059;-73
2022/09/15 05:23:50;;;;;;;1.80;0.90;;;;;;;;;;5091721;28;20040;-73
2022/09/15 05:26:24;;;;;;;3.60;0.98;;;;;;;;;;5091630;28;20044;-73
2022/09/15 05:28:51;;;;;;;2.40;1.08;;;;;;;;;;5091833;28;20044;-73
2022/09/15 05:31:18;;;;;;;4.32;1.25;;;;;;;;;;5091974;28;20040;-73
2022/09/15 05:33:45;;;;;;;2.72;1.05;;;;;;;;;;5091659;28;20048;-73
2022/09/15 05:36:16;;;;;;;5.93;1.33;;;;;;;;;;5091698;28;20055;-73
2022/09/15 05:38:42;;;;;;;2.13;1.17;;;;;;;;;;5091706;28;20044;-73
2022/09/15 05:41:10;;;;;;;3.47;0.93;;;;;;;;;;5091755;28;20052;-73
2022/09/15 05:43:37;;;;;;;3.63;1.00;;;;;;;;;;5091531;28;20059;-73
2022/09/15 05:46:04;;;;;;;1.42;0.98;;;;;;;;;;5091833;28;20048;-73
2022/09/15 05:48:30;;;;;;;4.72;1.10;;;;;;;;;;5090406;28;20101;-73
2022/09/15 05:50:57;;;;;;;2.67;1.20;;;;;;;;;;5091145;28;20048;-73
2022/09/15 05:53:24;;;;;;;2.50;1.02;;;;;;;;;;5091610;28;20048;-73
2022/09/15 05:55:57;;;;;;;2.80;1.17;;;;;;;;;;5091540;28;20064;-73
2022/09/15 05:58:24;;;;;;;3.05;1.13;;;;;;;;;;5095109;28;20048;-73
2022/09/15 06:00:54;;;;;;;3.83;1.42;;;;;;;;;;5095655;28;20051;-73
2022/09/15 06:03:21;;;;;;;3.75;1.20;;;;;;;;;;5095560;28;20083;-74
2022/09/15 06:05:59;;;;;;;2.47;0.90;;;;;;;;;;5095564;28;20048;-74
2022/09/15 06:08:30;;;;;;;2.60;0.82;;;;;;;;;;5094692;28;20051;-74
2022/09/15 06:11:01;;;;;;;3.63;1.20;;;;;;;;;;5094709;28;20052;-74
2022/09/15 06:13:27;;;;;;;2.45;1.17;;;;;;;;;;5093065;28;20048;-74
2022/09/15 06:15:59;;;;;;;2.83;1.20;;;;;;;;;;5094269;28;20043;-76
2022/09/15 06:18:25;;;;;;;2.72;1.15;;;;;;;;;;5094402;28;20138;-75
2022/09/15 06:20:52;;;;;;;2.05;1.05;;;;;;;;;;5094526;28;20479;-75
2022/09/15 06:23:18;;;;;;;4.03;1.30;;;;;;;;;;5094482;28;20106;-75
2022/09/15 06:25:44;;;;;;;2.95;1.38;;;;;;;;;;5094630;28;20460;-76
2022/09/15 06:28:11;;;;;;;2.95;0.88;;;;;;;;;;5094811;28;20048;-73
2022/09/15 06:30:38;;;;;;;2.90;1.17;;;;;;;;;;5094827;28;20051;-74
2022/09/15 06:33:04;;;;;;;7.68;1.42;;;;;;;;;;5094896;28;20054;-73
2022/09/15 06:35:30;;;;;;;5.25;1.40;;;;;;;;;;5093963;28;20044;-75
2022/09/15 06:37:57;;;;;;;3.10;1.20;;;;;;;;;;5093802;28;20051;-76
2022/09/15 06:40:23;;;;;;;3.42;1.20;;;;;;;;;;5093680;28;20048;-77
2022/09/15 06:42:53;;;;;;;3.72;1.27;;;;;;;;;;5093259;28;20090;-75
2022/09/15 06:45:20;;;;;;;2.63;0.98;;;;;;;;;;5093034;28;20040;-74
2022/09/15 06:47:46;;;;;;;2.97;1.15;;;;;;;;;;5094797;28;20044;-71
2022/09/15 06:50:32;;;;;;;2.75;1.17;;;;;;;;;;5094060;28;20060;-73
2022/09/15 06:52:59;;;;;;;3.47;0.90;;;;;;;;;;5094479;28;20056;-73
2022/09/15 06:55:26;;;;;;;1.25;0.75;;;;;;;;;;5094269;28;20054;-74
2022/09/15 06:57:53;;;;;;;3.97;1.10;;;;;;;;;;5094251;28;20044;-73
2022/09/15 07:00:19;;;;;;;2.97;1.10;;;;;;;;;;5093379;28;20052;-73
2022/09/15 07:02:49;;;;;;;2.88;1.25;;;;;;;;;;5093367;28;20044;-74
2022/09/15 07:05:15;;;;;;;5.03;1.17;;;;;;;;;;5093924;28;20059;-73
2022/09/15 07:07:42;;;;;;;3.55;1.25;;;;;;;;;;5093732;28;20048;-73
2022/09/15 07:10:08;;;;;;;5.88;1.10;;;;;;;;;;5093365;28;20052;-73
2022/09/15 07:12:34;;;;;;;6.05;1.20;;;;;;;;;;5094357;28;20055;-73
2022/09/15 07:15:01;;;;;;;3.25;0.90;;;;;;;;;;5094252;28;20059;-73
2022/09/15 07:17:28;;;;;;;4.40;1.35;;;;;;;;;;5093936;28;20058;-73
2022/09/15 07:19:54;;;;;;;2.78;1.13;;;;;;;;;;5093617;28;20056;-73
2022/09/15 07:22:20;;;;;;;3.17;1.17;;;;;;;;;;5093889;28;20411;-73
2022/09/15 07:24:47;;;;;;;4.78;1.30;;;;;;;;;;5093989;28;20040;-73
2022/09/15 07:27:13;;;;;;;2.05;0.95;;;;;;;;;;5093766;28;20052;-73
2022/09/15 07:29:39;;;;;;;6.38;1.17;;;;;;;;;;5093913;28;20048;-73
2022/09/15 07:32:06;;;;;;;6.30;1.15;;;;;;;;;;5093835;28;20058;-73
2022/09/15 07:34:32;;;;;;;3.88;1.23;;;;;;;;;;5093637;28;20617;-73
2022/09/15 07:36:59;;;;;;;4.25;1.10;;;;;;;;;;5093419;28;20480;-73
2022/09/15 07:39:25;;;;;;;2.17;0.95;;;;;;;;;;5093519;28;20048;-73
2022/09/15 07:41:51;;;;;;;2.95;0.95;;;;;;;;;;5093530;28;20048;-73
2022/09/15 07:44:18;;;;;;;4.80;1.30;;;;;;;;;;5093719;28;20364;-73
2022/09/15 07:46:45;;;;;;;5.03;1.02;;;;;;;;;;5093442;28;20044;-72
2022/09/15 07:49:11;;;;;;;5.45;1.40;;;;;;;;;;5093378;28;20044;-71
2022/09/15 07:51:37;;;;;;;5.43;1.30;;;;;;;;;;5093242;28;20424;-71
2022/09/15 07:54:04;;;;;;;3.42;1.05;;;;;;;;;;5093060;28;20444;-71
2022/09/15 07:56:30;;;;;;;4.10;1.23;;;;;;;;;;5093460;28;20058;-71
2022/09/15 07:58:57;;;;;;;5.68;1.02;;;;;;;;;;5093235;28;20056;-73
2022/09/15 08:01:23;;;;;;;5.75;1.23;;;;;;;;;;5093368;28;20044;-73
2022/09/15 08:03:50;;;;;;;6.43;1.05;;;;;;;;;;5092957;28;20056;-73
2022/09/15 08:06:18;;;;;;;4.35;1.05;;;;;;;;;;5093004;28;20046;-73
2022/09/15 08:08:45;;;;;;;;;;;;;;;;;;5093233;28;20132;-73
2022/09/15 08:11:13;;;;;;;7.72;1.05;;;;;;;;;;5093114;28;20371;-73
2022/09/15 08:13:48;;;;;;;5.72;1.17;;;;;;;;;;5093187;28;20051;-73
2022/09/15 08:16:18;;;;;;;5.47;1.25;;;;;;;;;;5093228;28;20062;-73
2022/09/15 08:18:45;;;;;;;12.95;3.13;;;;;;;;;;5092692;28;20051;-73
2022/09/15 08:21:14;;;;;;;3.83;1.20;;;;;;;;;;5092516;28;20491;-73
2022/09/15 08:23:40;;;;;;;5.50;1.20;;;;;;;;;;5092798;28;20384;-73
2022/09/15 08:26:08;;;;;;;4.95;1.13;;;;;;;;;;5092824;28;20044;-73
2022/09/15 08:28:39;;;;;;;5.18;0.90;;;;;;;;;;5078876;28;20052;-73
2022/09/15 08:31:07;;;;;;;4.80;1.30;;;;;;;;;;5092675;28;20051;-73
2022/09/15 08:33:33;;;;;;;;;;;;;;;;;;5093103;28;20087;-73
2022/09/15 08:36:02;;;;;;;6.85;1.13;;;;;;;;;;5092496;28;19930;-73
2022/09/15 08:38:28;;;;;;;5.40;1.40;;;;;;;;;;5092365;28;20048;-73
2022/09/15 08:40:59;;;;;;;3.90;1.10;;;;;;;;;;5092653;28;20059;-73
2022/09/15 08:43:28;;;;;;;3.33;1.00;;;;;;;;;;5092158;28;20052;-73
2022/09/15 08:45:57;;;;;;;5.00;1.30;;;;;;;;;;5092270;28;20050;-73
2022/09/15 08:48:26;;;;;;;4.75;1.20;;;;;;;;;;5092230;28;20048;-73
2022/09/15 08:50:54;;;;;;;4.13;1.17;;;;;;;;;;5092459;28;20044;-73
2022/09/15 08:53:24;;;;;;;5.20;1.17;;;;;;;;;;5092139;28;20529;-73
2022/09/15 08:55:54;;;;;;;3.70;1.17;;;;;;;;;;5092423;28;20051;-73
2022/09/15 08:58:24;;;;;;;2.13;0.85;;;;;;;;;;5092054;28;20132;-73
2022/09/15 09:00:56;;;;;;;4.63;1.30;;;;;;;;;;5091954;28;20063;-73
2022/09/15 09:03:36;;;;;;;4.40;0.90;;;;;;;;;;5092160;28;20040;-73
2022/09/15 09:06:06;;;;;;;3.63;0.98;;;;;;;;;;5091997;28;20452;-73
2022/09/15 09:08:38;;;;;;;4.20;0.90;;;;;;;;;;5091887;28;20040;-73
2022/09/15 09:11:23;;;;;;;4.70;0.82;;;;;;;;;;5092050;28;20044;-73
2022/09/15 09:13:53;;;;;;;3.80;0.85;;;;;;;;;;5091794;28;20560;-73
2022/09/15 09:16:28;;;;;;;4.47;0.82;;;;;;;;;;5091847;28;20051;-73
2022/09/15 09:19:18;;;;;;;3.75;0.95;;;;;;;;;;5091730;28;20060;-73
2022/09/15 09:21:53;;;;;;;3.40;1.20;;;;;;;;;;5081262;28;20063;-74
2022/09/15 09:24:31;;;;;;;2.97;0.70;;;;;;;;;;5091854;28;20129;-73
2022/09/15 09:26:58;;;;;;;4.65;0.88;;;;;;;;;;5090776;28;20048;-73
2022/09/15 09:29:38;;;;;;;1.88;0.60;;;;;;;;;;5091967;28;20070;-73
2022/09/15 09:32:24;;;;;;;2.83;0.68;;;;;;;;;;5091125;28;20503;-73
2022/09/15 09:35:23;;;;;;;2.75;0.60;;;;;;;;;;5091474;28;20059;-73
2022/09/15 09:37:51;;;;;;;3.35;0.90;;;;;;;;;;5068052;28;20461;-73
2022/09/15 09:40:18;;;;;;;3.60;0.90;;;;;;;;;;5091743;28;20047;-73
2022/09/15 09:42:44;;;;;;;3.05;0.90;;;;;;;;;;5091716;28;20431;-73
2022/09/15 09:45:15;;;;;;;2.73;0.63;;;;;;;;;;5091843;28;20055;-73
2022/09/15 09:47:41;;;;;;;3.38;0.70;;;;;;;;;;5091444;28;20785;-74
2022/09/15 09:50:29;;;;;;;3.53;0.63;;;;;;;;;;5091378;28;20882;-73
2022/09/15 09:52:55;;;;;;;4.10;1.00;;;;;;;;;;5091590;28;20052;-73
2022/09/15 09:55:23;;;;;;;4.10;0.70;;;;;;;;;;5091389;28;20048;-73
2022/09/15 09:57:49;;;;;;;3.03;0.80;;;;;;;;;;5091499;28;20276;-73
2022/09/15 10:00:28;;;;;;;2.37;0.70;;;;;;;;;;5091429;28;20501;-73
2022/09/15 10:02:54;;;;;;;4.05;0.88;;;;;;;;;;5091508;28;20300;-73
2022/09/15 10:05:21;;;;;;;2.00;0.70;;;;;;;;;;5091247;28;20048;-73
2022/09/15 10:07:47;;;;;;;4.77;1.17;;;;;;;;;;5091162;28;20551;-73
2022/09/15 10:10:18;;;;;;;3.10;1.02;;;;;;;;;;5091329;28;20551;-73
2022/09/15 10:12:45;;;;;;;3.13;0.73;;;;;;;;;;5091457;28;20062;-73
2022/09/15 10:15:12;;;;;;;;;;;;;;;;;;5091961;28;20043;-73
2022/09/15 10:17:40;;;;;;;1.77;0.50;;;;;;;;;;5091448;28;19926;-73
2022/09/15 10:20:19;;;;;;;3.08;0.80;;;;;;;;;;5091093;28;20415;-73
2022/09/15 10:22:46;;;;;;;3.50;0.70;;;;;;;;;;5091343;28;20048;-73
2022/09/15 10:25:18;;;;;;;3.37;0.77;;;;;;;;;;5091470;28;20044;-73
2022/09/15 10:28:05;;;;;;;2.88;0.75;;;;;;;;;;5090234;28;20460;-73
2022/09/15 10:30:31;;;;;;;3.15;0.60;;;;;;;;;;5087229;28;20044;-73
2022/09/15 10:33:16;;;;;;;2.97;0.63;;;;;;;;;;5091053;28;20518;-73
2022/09/15 10:35:43;;;;;;;3.15;0.80;;;;;;;;;;5091097;28;20080;-73
2022/09/15 10:38:15;;;;;;;3.58;1.15;;;;;;;;;;5091292;28;20056;-73
2022/09/15 10:40:50;;;;;;;4.30;0.80;;;;;;;;;;5090893;28;20062;-74
2022/09/15 10:43:20;;;;;;;2.20;0.80;;;;;;;;;;5091124;28;20056;-73
2022/09/15 10:45:47;;;;;;;2.75;0.70;;;;;;;;;;5094892;28;20044;-73
2022/09/15 10:48:20;;;;;;;2.75;1.15;;;;;;;;;;5094590;28;20567;-74
2022/09/15 10:50:50;;;;;;;2.85;0.80;;;;;;;;;;5094884;28;20123;-74
2022/09/15 10:53:25;;;;;;;2.28;0.75;;;;;;;;;;5094441;28;20047;-73
2022/09/15 10:56:00;;;;;;;3.60;0.80;;;;;;;;;;5094597;28;20055;-73
2022/09/15 10:58:26;;;;;;;2.83;0.70;;;;;;;;;;5094377;28;20054;-74
2022/09/15 11:00:55;;;;;;;2.47;0.50;;;;;;;;;;5094264;28;20513;-74
2022/09/15 11:03:22;;;;;;;3.38;0.90;;;;;;;;;;5094228;28;20070;-73
2022/09/15 11:05:54;;;;;;;3.33;0.70;;;;;;;;;;5094132;28;20040;-74
2022/09/15 11:08:39;;;;;;;4.50;1.08;;;;;;;;;;5094389;28;20036;-74
2022/09/15 11:11:21;;;;;;;2.40;0.77;;;;;;;;;;5094196;28;20055;-74
2022/09/15 11:14:04;;;;;;;2.70;0.75;;;;;;;;;;5094069;28;20047;-74
2022/09/15 11:16:50;;;;;;;2.63;0.70;;;;;;;;;;5093976;28;20050;-74
2022/09/15 11:19:35;;;;;;;1.95;0.70;;;;;;;;;;5093782;28;20470;-74
2022/09/15 11:22:06;;;;;;;3.55;0.90;;;;;;;;;;5093922;28;20044;-74
2022/09/15 11:24:38;;;;;;;3.03;0.73;;;;;;;;;;5093928;28;20044;-74
2022/09/15 11:27:24;;;;;;;2.30;0.60;;;;;;;;;;5093860;28;20059;-74
2022/09/15 11:29:51;;;;;;;;;;;;;;;;;;5094009;28;20407;-74
2022/09/15 11:32:21;;;;;;;3.10;0.70;;;;;;;;;;5093851;28;19932;-74
2022/09/15 11:35:06;;;;;;;3.17;0.80;;;;;;;;;;5093563;28;20496;-74
2022/09/15 11:37:39;;;;;;;1.95;0.60;;;;;;;;;;5093828;28;20047;-74
2022/09/15 11:40:16;;;;;;;5.70;1.00;;;;;;;;;;5093914;28;20044;-74
2022/09/15 11:42:43;;;;;;;3.15;0.70;;;;;;;;;;5094094;28;20074;-74
2022/09/15 11:45:19;;;;;;;3.20;0.65;;;;;;;;;;5093305;28;20048;-74
2022/09/15 11:47:49;;;;;;;3.42;0.80;;;;;;;;;;5093687;28;20048;-74
2022/09/15 11:50:25;;;;;;;3.67;0.90;;;;;;;;;;5093365;28;20040;-74
2022/09/15 11:52:51;;;;;;;1.10;0.50;;;;;;;;;;5093884;28;20047;-74
2022/09/15 11:55:37;;;;;;;3.47;0.73;;;;;;;;;;5092768;28;20487;-73
2022/09/15 11:58:06;;;;;;;2.78;0.80;;;;;;;;;;5093443;28;20040;-73
2022/09/15 12:00:37;;;;;;;4.90;1.27;;;;;;;;;;5093432;28;20056;-74
2022/09/15 12:03:16;;;;;;;1.85;0.55;;;;;;;;;;5093117;28;20054;-74
2022/09/15 12:06:03;;;;;;;3.95;0.88;;;;;;;;;;5093284;28;20048;-74
2022/09/15 12:08:36;;;;;;;3.33;0.82;;;;;;;;;;5093137;28;20046;-74
2022/09/15 12:11:06;;;;;;;2.40;0.70;;;;;;;;;;5092969;28;20048;-72
2022/09/15 12:13:33;;;;;;;1.67;0.77;;;;;;;;;;5093152;28;20052;-72
2022/09/15 12:16:03;;;;;;;3.72;0.80;;;;;;;;;;5078884;28;20056;-72
2022/09/15 12:18:36;;;;;;;4.30;1.02;;;;;;;;;;5077677;28;20051;-72
2022/09/15 12:21:20;;;;;;;4.35;1.00;;;;;;;;;;5092914;28;20048;-72
2022/09/15 12:23:52;;;;;;;3.75;0.90;;;;;;;;;;5091709;28;20047;-72
2022/09/15 12:26:20;;;;;;;2.80;0.90;;;;;;;;;;5092765;28;20048;-72
2022/09/15 12:28:54;;;;;;;3.15;1.77;;;;;;;;;;5092948;28;20691;-72
2022/09/15 12:31:31;;;;;;;3.85;1.35;;;;;;;;;;5092759;28;20051;-72
2022/09/15 12:34:03;;;;;;;3.92;1.20;;;;;;;;;;5092725;28;20047;-72
2022/09/15 12:36:31;;;;;;;4.13;1.10;;;;;;;;;;5092540;28;20414;-72
2022/09/15 12:38:58;;;;;;;4.90;1.30;;;;;;;;;;5092430;28;20510;-71
2022/09/15 12:41:25;;;;;;;4.75;1.05;;;;;;;;;;5092439;28;20054;-72
2022/09/15 12:43:53;;;;;;;5.88;2.00;;;;;;;;;;5092705;28;20074;-71
2022/09/15 12:46:19;;;;;;;3.30;1.02;;;;;;;;;;5092592;28;20058;-71
2022/09/15 12:48:46;;;;;;;2.25;0.85;;;;;;;;;;5092371;28;20075;-72
2022/09/15 12:51:21;;;;;;;5.18;2.88;;;;;;;;;;5092242;28;20052;-71
2022/09/15 12:53:47;;;;;;;3.05;1.83;;;;;;;;;;5092385;28;20070;-72
2022/09/15 12:56:22;;;;;;;3.63;1.50;;;;;;;;;;5092103;28;20052;-72
2022/09/15 12:58:49;;;;;;;3.60;1.40;;;;;;;;;;5092007;28;20470;-72
2022/09/15 13:01:22;;;;;;;2.47;0.93;;;;;;;;;;5092288;28;20411;-72
2022/09/15 13:03:48;;;;;;;3.42;0.73;;;;;;;;;;5092256;28;20093;-72
2022/09/15 13:06:22;;;;;;;3.50;1.30;;;;;;;;;;5091144;28;20475;-72
2022/09/15 13:09:09;;;;;;;1.65;1.00;;;;;;;;;;5091845;28;20040;-72
2022/09/15 13:11:38;;;;;;;3.05;0.90;;;;;;;;;;5080462;28;20369;-72
2022/09/15 13:14:11;;;;;;;2.20;0.70;;;;;;;;;;5091996;28;20059;-72
2022/09/15 13:16:38;;;;;;;2.67;0.98;;;;;;;;;;5091807;28;20054;-72
2022/09/15 13:19:04;;;;;;;;;;;;;;;;;;5091969;28;20438;-72
2022/09/15 13:21:32;;;;;;;3.15;0.98;;;;;;;;;;5092308;28;19932;-72
2022/09/15 13:24:01;;;;;;;2.85;0.93;;;;;;;;;;5091841;28;20067;-72
2022/09/15 13:26:29;;;;;;;3.75;0.70;;;;;;;;;;5091644;28;20524;-72
2022/09/15 13:28:56;;;;;;;2.58;0.82;;;;;;;;;;5091966;28;20059;-72
2022/09/15 13:31:26;;;;;;;3.20;0.90;;;;;;;;;;5091518;28;20048;-72
2022/09/15 13:34:07;;;;;;;3.30;0.88;;;;;;;;;;5091922;28;20051;-72
2022/09/15 13:37:12;;;;;;;2.58;0.90;;;;;;;;;;5091467;28;20040;-74
2022/09/15 13:40:11;;;;;;;4.25;1.17;;;;;;;;;;5091338;28;20056;-72
2022/09/15 13:42:41;;;;;;;4.40;1.02;;;;;;;;;;5091878;28;20563;-72
2022/09/15 13:45:17;;;;;;;2.75;0.70;;;;;;;;;;5090094;28;20511;-72
2022/09/15 13:47:50;;;;;;;3.92;0.80;;;;;;;;;;5091798;28;20044;-72
2022/09/15 13:50:24;;;;;;;2.20;0.73;;;;;;;;;;5091391;28;20058;-72
2022/09/15 13:52:59;;;;;;;3.13;0.70;;;;;;;;;;5091694;28;20040;-72
2022/09/15 13:55:32;;;;;;;3.08;0.70;;;;;;;;;;5091521;28;20050;-72
2022/09/15 13:58:00;;;;;;;2.35;0.75;;;;;;;;;;5091387;28;20050;-72
2022/09/15 14:00:51;;;;;;;1.80;0.60;;;;;;;;;;5091174;28;20051;-72
2022/09/15 14:03:22;;;;;;;3.13;0.80;;;;;;;;;;5091424;28;20050;-72
2022/09/15 14:05:49;;;;;;;2.13;0.80;;;;;;;;;;5091221;28;20044;-72
2022/09/15 14:08:17;;;;;;;3.30;0.85;;;;;;;;;;5091287;28;20487;-72
2022/09/15 14:10:53;;;;;;;1.77;0.57;;;;;;;;;;5091378;28;20106;-72
2022/09/15 14:13:19;;;;;;;;;;;;;;;;;;5091706;28;20422;-72
2022/09/15 14:16:07;;;;;;;2.40;0.85;;;;;;;;;;5091192;28;20373;-72
2022/09/15 14:18:41;;;;;;;2.88;0.65;;;;;;;;;;5093278;28;20091;-72
2022/09/15 14:21:21;;;;;;;2.08;0.52;;;;;;;;;;5095164;28;20054;-73
2022/09/15 14:23:57;;;;;;;2.22;0.50;;;;;;;;;;5095015;28;20059;-72
2022/09/15 14:26:25;;;;;;;1.25;0.50;;;;;;;;;;5095151;28;20044;-72
2022/09/15 14:28:54;;;;;;;2.45;0.70;;;;;;;;;;5095367;28;20047;-72
2022/09/15 14:31:47;;;;;;;2.55;0.80;;;;;;;;;;5095153;28;20048;-72
2022/09/15 14:34:15;;;;;;;2.40;0.90;;;;;;;;;;5093762;28;20442;-72
2022/09/15 14:36:42;;;;;;;1.88;0.77;;;;;;;;;;5094872;28;20056;-72
2022/09/15 14:39:11;;;;;;;2.45;0.82;;;;;;;;;;5094953;28;20048;-72
2022/09/15 14:41:38;;;;;;;2.58;0.60;;;;;;;;;;5094871;28;20056;-72
2022/09/15 14:44:18;;;;;;;2.00;0.70;;;;;;;;;;5094618;28;20062;-72
2022/09/15 14:47:20;;;;;;;2.58;0.88;;;;;;;;;;5094788;28;20044;-72
2022/09/15 14:49:47;;;;;;;2.65;0.80;;;;;;;;;;5094560;28;20044;-72
2022/09/15 14:52:21;;;;;;;2.78;0.70;;;;;;;;;;5094679;28;20040;-72
2022/09/15 14:54:48;;;;;;;4.03;0.70;;;;;;;;;;5094691;28;20081;-72
2022/09/15 14:57:17;;;;;;;2.70;1.00;;;;;;;;;;5094646;28;20082;-73
2022/09/15 14:59:46;;;;;;;3.08;0.82;;;;;;;;;;5094333;28;20055;-74
2022/09/15 15:02:31;;;;;;;4.15;1.00;;;;;;;;;;5094361;28;20541;-74
2022/09/15 15:05:03;;;;;;;3.22;1.00;;;;;;;;;;5094148;28;20048;-73
2022/09/15 15:07:30;;;;;;;2.22;0.70;;;;;;;;;;5094108;28;20048;-74